sensor_id;sensor_type;location;lat;lon;timestamp;temperature;humidity
12557;DHT22;6344;49.932;8.308;2023-02-08T00:01:06;-4.30;99.90
12557;DHT22;6344;49.932;8.308;2023-02-08T00:03:33;-4.10;99.90
12557;DHT22;6344;49.932;8.308;2023-02-08T00:06:01;-4.20;99.90
12557;DHT22;6344;49.932;8.308;2023-02-08T00:08:27;-4.30;99.90
12557;DHT22;6344;49.932;8.308;2023-02-08T00:10:54;-4.50;99.90
12557;DHT22;6344;49.932;8.308;2023-02-08T00:13:21;-4.60;99.90
12557;DHT22;6344;49.932;8.308;2023-02-08T00:15:47;-4.70;99.90
12557;DHT22;6344;49.932;8.308;2023-02-08T00:18:14;-4.60;99.90
12557;DHT22;6344;49.932;8.308;2023-02-08T00:20:41;-4.50;99.90
12557;DHT22;6344;49.932;8.308;2023-02-08T00:23:10;-4.60;99.90
12557;DHT22;6344;49.932;8.308;2023-02-08T00:25:37;-4.70;99.90
12557;DHT22;6344;49.932;8.308;2023-02-08T00:28:04;-4.70;99.90
12557;DHT22;6344;49.932;8.308;2023-02-08T00:30:31;-4.70;99.90
12557;DHT22;6344;49.932;8.308;2023-02-08T00:33:00;-4.60;99.90
12557;DHT22;6344;49.932;8.308;2023-02-08T00:35:27;-4.60;99.90
12557;DHT22;6344;49.932;8.308;2023-02-08T00:37:54;-4.70;99.90
12557;DHT22;6344;49.932;8.308;2023-02-08T00:40:22;-4.70;99.90
12557;DHT22;6344;49.932;8.308;2023-02-08T00:42:49;-4.80;99.90
12557;DHT22;6344;49.932;8.308;2023-02-08T00:45:16;-4.70;99.90
12557;DHT22;6344;49.932;8.308;2023-02-08T00:47:42;-4.60;99.90
12557;DHT22;6344;49.932;8.308;2023-02-08T00:50:10;-4.60;99.90
12557;DHT22;6344;49.932;8.308;2023-02-08T00:52:37;-4.50;99.90
12557;DHT22;6344;49.932;8.308;2023-02-08T00:55:04;-4.40;99.90
12557;DHT22;6344;49.932;8.308;2023-02-08T00:57:33;-4.50;99.90
12557;DHT22;6344;49.932;8.308;2023-02-08T01:00:00;-4.40;99.90
12557;DHT22;6344;49.932;8.308;2023-02-08T01:02:27;-4.50;99.90
12557;DHT22;6344;49.932;8.308;2023-02-08T01:04:53;-4.50;99.90
12557;DHT22;6344;49.932;8.308;2023-02-08T01:07:20;-4.40;99.90
12557;DHT22;6344;49.932;8.308;2023-02-08T01:09:47;-4.40;99.90
12557;DHT22;6344;49.932;8.308;2023-02-08T01:12:13;-4.40;99.90
12557;DHT22;6344;49.932;8.308;2023-02-08T01:14:41;-4.40;99.90
12557;DHT22;6344;49.932;8.308;2023-02-08T01:17:09;-4.40;99.90
12557;DHT22;6344;49.932;8.308;2023-02-08T01:19:36;-4.30;99.90
12557;DHT22;6344;49.932;8.308;2023-02-08T01:22:02;-4.40;99.90
12557;DHT22;6344;49.932;8.308;2023-02-08T01:24:29;-4.50;99.90
12557;DHT22;6344;49.932;8.308;2023-02-08T01:26:56;-4.40;99.90
12557;DHT22;6344;49.932;8.308;2023-02-08T01:29:23;-4.40;99.90
12557;DHT22;6344;49.932;8.308;2023-02-08T01:31:51;-4.30;99.90
12557;DHT22;6344;49.932;8.308;2023-02-08T01:34:18;-4.30;99.90
12557;DHT22;6344;49.932;8.308;2023-02-08T01:36:45;-4.30;99.90
12557;DHT22;6344;49.932;8.308;2023-02-08T01:39:11;-4.30;99.90
12557;DHT22;6344;49.932;8.308;2023-02-08T01:41:40;-4.30;99.90
12557;DHT22;6344;49.932;8.308;2023-02-08T01:47:10;-4.30;99.90
12557;DHT22;6344;49.932;8.308;2023-02-08T01:49:37;-4.20;99.90
12557;DHT22;6344;49.932;8.308;2023-02-08T01:52:06;-4.00;99.90
12557;DHT22;6344;49.932;8.308;2023-02-08T01:54:37;-4.10;99.90
12557;DHT22;6344;49.932;8.308;2023-02-08T01:57:05;-4.20;99.90
12557;DHT22;6344;49.932;8.308;2023-02-08T01:59:34;-4.40;99.90
12557;DHT22;6344;49.932;8.308;2023-02-08T02:02:03;-4.40;99.90
12557;DHT22;6344;49.932;8.308;2023-02-08T02:04:31;-4.30;99.90
12557;DHT22;6344;49.932;8.308;2023-02-08T02:06:59;-4.30;99.90
12557;DHT22;6344;49.932;8.308;2023-02-08T02:09:30;-4.30;99.90
12557;DHT22;6344;49.932;8.308;2023-02-08T02:11:59;-4.20;99.90
12557;DHT22;6344;49.932;8.308;2023-02-08T02:14:27;-4.20;99.90
12557;DHT22;6344;49.932;8.308;2023-02-08T02:16:53;-4.20;99.90
12557;DHT22;6344;49.932;8.308;2023-02-08T02:19:25;-4.30;99.90
12557;DHT22;6344;49.932;8.308;2023-02-08T02:22:05;-4.60;99.90
12557;DHT22;6344;49.932;8.308;2023-02-08T02:28:01;-4.60;99.90
12557;DHT22;6344;49.932;8.308;2023-02-08T02:30:52;-4.70;99.90
12557;DHT22;6344;49.932;8.308;2023-02-08T02:33:37;-4.90;99.90
12557;DHT22;6344;49.932;8.308;2023-02-08T02:36:16;-4.90;99.90
12557;DHT22;6344;49.932;8.308;2023-02-08T02:38:53;-4.80;99.90
12557;DHT22;6344;49.932;8.308;2023-02-08T02:41:36;-4.80;99.90
12557;DHT22;6344;49.932;8.308;2023-02-08T02:44:25;-4.70;99.90
12557;DHT22;6344;49.932;8.308;2023-02-08T02:46:59;-4.60;99.90
12557;DHT22;6344;49.932;8.308;2023-02-08T02:49:32;-4.60;99.90
12557;DHT22;6344;49.932;8.308;2023-02-08T02:52:05;-4.60;99.90
12557;DHT22;6344;49.932;8.308;2023-02-08T02:54:38;-4.60;99.90
12557;DHT22;6344;49.932;8.308;2023-02-08T02:57:09;-4.40;99.90
12557;DHT22;6344;49.932;8.308;2023-02-08T02:59:38;-4.40;99.90
12557;DHT22;6344;49.932;8.308;2023-02-08T03:02:05;-4.50;99.90
12557;DHT22;6344;49.932;8.308;2023-02-08T03:04:53;-4.60;99.90
12557;DHT22;6344;49.932;8.308;2023-02-08T03:10:45;-4.50;99.90
12557;DHT22;6344;49.932;8.308;2023-02-08T03:13:24;-4.40;99.90
12557;DHT22;6344;49.932;8.308;2023-02-08T03:16:00;-4.30;99.90
12557;DHT22;6344;49.932;8.308;2023-02-08T03:18:34;-4.20;99.90
12557;DHT22;6344;49.932;8.308;2023-02-08T03:21:09;-4.30;99.90
12557;DHT22;6344;49.932;8.308;2023-02-08T03:23:40;-4.30;99.90
12557;DHT22;6344;49.932;8.308;2023-02-08T03:26:15;-4.50;99.90
12557;DHT22;6344;49.932;8.308;2023-02-08T03:28:49;-4.60;99.90
12557;DHT22;6344;49.932;8.308;2023-02-08T03:31:22;-4.50;99.90
12557;DHT22;6344;49.932;8.308;2023-02-08T03:33:53;-4.00;99.90
12557;DHT22;6344;49.932;8.308;2023-02-08T03:36:26;-4.10;99.90
12557;DHT22;6344;49.932;8.308;2023-02-08T03:38:59;-3.80;99.90
12557;DHT22;6344;49.932;8.308;2023-02-08T03:41:29;-3.90;99.90
12557;DHT22;6344;49.932;8.308;2023-02-08T03:44:00;-4.00;99.90
12557;DHT22;6344;49.932;8.308;2023-02-08T03:46:29;-4.10;99.90
12557;DHT22;6344;49.932;8.308;2023-02-08T03:48:59;-4.30;99.90
12557;DHT22;6344;49.932;8.308;2023-02-08T03:51:31;-4.30;99.90
12557;DHT22;6344;49.932;8.308;2023-02-08T03:54:02;-4.50;99.90
12557;DHT22;6344;49.932;8.308;2023-02-08T03:56:37;-4.50;99.90
12557;DHT22;6344;49.932;8.308;2023-02-08T03:59:08;-4.60;99.90
12557;DHT22;6344;49.932;8.308;2023-02-08T04:01:42;-4.40;99.90
12557;DHT22;6344;49.932;8.308;2023-02-08T04:04:10;-4.50;99.90
12557;DHT22;6344;49.932;8.308;2023-02-08T04:06:39;-4.60;99.90
12557;DHT22;6344;49.932;8.308;2023-02-08T04:09:06;-4.60;99.90
12557;DHT22;6344;49.932;8.308;2023-02-08T04:11:32;-4.90;99.90
12557;DHT22;6344;49.932;8.308;2023-02-08T04:13:59;-5.10;99.90
12557;DHT22;6344;49.932;8.308;2023-02-08T04:16:26;-5.10;99.90
12557;DHT22;6344;49.932;8.308;2023-02-08T04:18:52;-5.00;99.90
12557;DHT22;6344;49.932;8.308;2023-02-08T04:21:19;-4.70;99.90
12557;DHT22;6344;49.932;8.308;2023-02-08T04:23:47;-4.80;99.90
12557;DHT22;6344;49.932;8.308;2023-02-08T04:26:14;-4.70;99.90
12557;DHT22;6344;49.932;8.308;2023-02-08T04:28:40;-4.60;99.90
12557;DHT22;6344;49.932;8.308;2023-02-08T04:31:07;-4.30;99.90
12557;DHT22;6344;49.932;8.308;2023-02-08T04:33:34;-4.40;99.90
12557;DHT22;6344;49.932;8.308;2023-02-08T04:36:00;-4.50;99.90
12557;DHT22;6344;49.932;8.308;2023-02-08T04:38:27;-4.20;99.90
12557;DHT22;6344;49.932;8.308;2023-02-08T04:40:55;-4.00;99.90
12557;DHT22;6344;49.932;8.308;2023-02-08T04:43:22;-4.00;99.90
12557;DHT22;6344;49.932;8.308;2023-02-08T04:45:48;-4.20;99.90
12557;DHT22;6344;49.932;8.308;2023-02-08T04:48:15;-4.10;99.90
12557;DHT22;6344;49.932;8.308;2023-02-08T04:50:42;-4.20;99.90
12557;DHT22;6344;49.932;8.308;2023-02-08T04:53:08;-4.60;99.90
12557;DHT22;6344;49.932;8.308;2023-02-08T04:55:35;-4.70;99.90
12557;DHT22;6344;49.932;8.308;2023-02-08T04:58:03;-5.00;99.90
12557;DHT22;6344;49.932;8.308;2023-02-08T05:00:30;-5.00;99.90
12557;DHT22;6344;49.932;8.308;2023-02-08T05:02:57;-5.10;99.90
12557;DHT22;6344;49.932;8.308;2023-02-08T05:05:25;-5.10;99.90
12557;DHT22;6344;49.932;8.308;2023-02-08T05:07:51;-5.10;99.90
12557;DHT22;6344;49.932;8.308;2023-02-08T05:10:19;-5.30;99.90
12557;DHT22;6344;49.932;8.308;2023-02-08T05:12:45;-5.40;99.90
12557;DHT22;6344;49.932;8.308;2023-02-08T05:15:13;-5.50;99.90
12557;DHT22;6344;49.932;8.308;2023-02-08T05:17:40;-5.40;99.90
12557;DHT22;6344;49.932;8.308;2023-02-08T05:20:08;-5.40;99.90
12557;DHT22;6344;49.932;8.308;2023-02-08T05:22:35;-5.50;99.90
12557;DHT22;6344;49.932;8.308;2023-02-08T05:25:02;-5.40;99.90
12557;DHT22;6344;49.932;8.308;2023-02-08T05:27:29;-5.30;99.90
12557;DHT22;6344;49.932;8.308;2023-02-08T05:29:55;-5.40;99.90
12557;DHT22;6344;49.932;8.308;2023-02-08T05:32:23;-5.50;99.90
12557;DHT22;6344;49.932;8.308;2023-02-08T05:34:50;-5.30;99.90
12557;DHT22;6344;49.932;8.308;2023-02-08T05:37:17;-5.10;99.90
12557;DHT22;6344;49.932;8.308;2023-02-08T05:39:43;-5.00;99.90
12557;DHT22;6344;49.932;8.308;2023-02-08T05:42:10;-5.10;99.90
12557;DHT22;6344;49.932;8.308;2023-02-08T05:44:37;-5.10;99.90
12557;DHT22;6344;49.932;8.308;2023-02-08T05:47:03;-5.00;99.90
12557;DHT22;6344;49.932;8.308;2023-02-08T05:49:32;-5.30;99.90
12557;DHT22;6344;49.932;8.308;2023-02-08T05:51:58;-5.40;99.90
12557;DHT22;6344;49.932;8.308;2023-02-08T05:54:25;-5.40;99.90
12557;DHT22;6344;49.932;8.308;2023-02-08T05:56:52;-5.40;99.90
12557;DHT22;6344;49.932;8.308;2023-02-08T05:59:18;-5.50;99.90
12557;DHT22;6344;49.932;8.308;2023-02-08T06:01:45;-5.50;99.90
12557;DHT22;6344;49.932;8.308;2023-02-08T06:04:12;-5.60;99.90
12557;DHT22;6344;49.932;8.308;2023-02-08T06:06:40;-5.70;99.90
12557;DHT22;6344;49.932;8.308;2023-02-08T06:09:06;-5.80;99.90
12557;DHT22;6344;49.932;8.308;2023-02-08T06:11:33;-5.90;99.90
12557;DHT22;6344;49.932;8.308;2023-02-08T06:14:00;-5.80;99.90
12557;DHT22;6344;49.932;8.308;2023-02-08T06:16:27;-5.70;99.90
12557;DHT22;6344;49.932;8.308;2023-02-08T06:18:54;-5.60;99.90
12557;DHT22;6344;49.932;8.308;2023-02-08T06:21:20;-5.60;99.90
12557;DHT22;6344;49.932;8.308;2023-02-08T06:23:48;-5.60;99.90
12557;DHT22;6344;49.932;8.308;2023-02-08T06:26:15;-5.60;99.90
12557;DHT22;6344;49.932;8.308;2023-02-08T06:28:42;-5.70;99.90
12557;DHT22;6344;49.932;8.308;2023-02-08T06:31:08;-5.80;99.90
12557;DHT22;6344;49.932;8.308;2023-02-08T06:33:35;-5.90;99.90
12557;DHT22;6344;49.932;8.308;2023-02-08T06:36:01;-5.90;99.90
12557;DHT22;6344;49.932;8.308;2023-02-08T06:38:28;-6.00;99.90
12557;DHT22;6344;49.932;8.308;2023-02-08T06:40:56;-6.10;99.90
12557;DHT22;6344;49.932;8.308;2023-02-08T06:43:23;-6.10;99.90
12557;DHT22;6344;49.932;8.308;2023-02-08T06:45:50;-6.10;99.90
12557;DHT22;6344;49.932;8.308;2023-02-08T06:48:16;-6.00;99.90
12557;DHT22;6344;49.932;8.308;2023-02-08T06:50:43;-5.90;99.90
12557;DHT22;6344;49.932;8.308;2023-02-08T06:53:09;-5.90;99.90
12557;DHT22;6344;49.932;8.308;2023-02-08T06:55:37;-5.90;99.90
12557;DHT22;6344;49.932;8.308;2023-02-08T06:58:05;-5.90;99.90
12557;DHT22;6344;49.932;8.308;2023-02-08T07:00:32;-5.90;99.90
12557;DHT22;6344;49.932;8.308;2023-02-08T07:02:58;-5.90;99.90
12557;DHT22;6344;49.932;8.308;2023-02-08T07:05:25;-5.90;99.90
12557;DHT22;6344;49.932;8.308;2023-02-08T07:07:52;-5.70;99.90
12557;DHT22;6344;49.932;8.308;2023-02-08T07:10:19;-5.60;99.90
12557;DHT22;6344;49.932;8.308;2023-02-08T07:12:45;-5.50;99.90
12557;DHT22;6344;49.932;8.308;2023-02-08T07:15:13;-5.40;99.90
12557;DHT22;6344;49.932;8.308;2023-02-08T07:17:40;-5.10;99.90
12557;DHT22;6344;49.932;8.308;2023-02-08T07:20:08;-5.20;99.90
12557;DHT22;6344;49.932;8.308;2023-02-08T07:22:35;-5.20;99.90
12557;DHT22;6344;49.932;8.308;2023-02-08T07:25:02;-5.10;99.90
12557;DHT22;6344;49.932;8.308;2023-02-08T07:27:29;-5.10;99.90
12557;DHT22;6344;49.932;8.308;2023-02-08T07:29:56;-4.90;99.90
12557;DHT22;6344;49.932;8.308;2023-02-08T07:32:24;-4.80;99.90
12557;DHT22;6344;49.932;8.308;2023-02-08T07:34:50;-4.60;99.90
12557;DHT22;6344;49.932;8.308;2023-02-08T07:37:18;-4.50;99.90
12557;DHT22;6344;49.932;8.308;2023-02-08T07:39:45;-4.20;99.90
12557;DHT22;6344;49.932;8.308;2023-02-08T07:42:11;-4.00;99.90
12557;DHT22;6344;49.932;8.308;2023-02-08T07:44:38;-3.60;99.90
12557;DHT22;6344;49.932;8.308;2023-02-08T07:47:05;-3.50;99.90
12557;DHT22;6344;49.932;8.308;2023-02-08T07:49:33;-3.50;99.90
12557;DHT22;6344;49.932;8.308;2023-02-08T07:52:01;-3.30;99.90
12557;DHT22;6344;49.932;8.308;2023-02-08T07:54:28;-3.00;99.90
12557;DHT22;6344;49.932;8.308;2023-02-08T07:56:55;-2.90;99.90
12557;DHT22;6344;49.932;8.308;2023-02-08T07:59:21;-2.70;99.90
12557;DHT22;6344;49.932;8.308;2023-02-08T08:01:48;-2.60;99.90
12557;DHT22;6344;49.932;8.308;2023-02-08T08:04:15;-2.50;99.90
12557;DHT22;6344;49.932;8.308;2023-02-08T08:06:43;-2.40;99.90
12557;DHT22;6344;49.932;8.308;2023-02-08T08:09:10;-2.30;99.90
12557;DHT22;6344;49.932;8.308;2023-02-08T08:11:39;-2.20;99.90
12557;DHT22;6344;49.932;8.308;2023-02-08T08:14:06;-2.00;99.90
12557;DHT22;6344;49.932;8.308;2023-02-08T08:16:33;-1.90;99.90
12557;DHT22;6344;49.932;8.308;2023-02-08T08:18:59;-1.80;99.90
12557;DHT22;6344;49.932;8.308;2023-02-08T08:21:26;-1.70;99.90
12557;DHT22;6344;49.932;8.308;2023-02-08T08:23:54;-1.70;99.90
12557;DHT22;6344;49.932;8.308;2023-02-08T08:26:21;-1.50;99.90
12557;DHT22;6344;49.932;8.308;2023-02-08T08:28:48;-1.50;99.90
12557;DHT22;6344;49.932;8.308;2023-02-08T08:31:16;-1.40;99.90
12557;DHT22;6344;49.932;8.308;2023-02-08T08:33:43;-1.20;37.20
12557;DHT22;6344;49.932;8.308;2023-02-08T08:36:09;-1.10;41.60
12557;DHT22;6344;49.932;8.308;2023-02-08T08:38:36;-0.80;19.60
12557;DHT22;6344;49.932;8.308;2023-02-08T08:41:11;-0.20;1.00
12557;DHT22;6344;49.932;8.308;2023-02-08T08:43:39;0.30;1.00
12557;DHT22;6344;49.932;8.308;2023-02-08T08:46:06;0.80;1.00
12557;DHT22;6344;49.932;8.308;2023-02-08T08:48:33;1.10;1.00
12557;DHT22;6344;49.932;8.308;2023-02-08T08:51:00;1.30;1.00
12557;DHT22;6344;49.932;8.308;2023-02-08T08:53:26;1.30;1.00
12557;DHT22;6344;49.932;8.308;2023-02-08T08:55:53;1.60;1.00
12557;DHT22;6344;49.932;8.308;2023-02-08T08:58:21;1.70;1.00
12557;DHT22;6344;49.932;8.308;2023-02-08T09:00:48;1.50;1.00
12557;DHT22;6344;49.932;8.308;2023-02-08T09:03:14;1.40;1.00
12557;DHT22;6344;49.932;8.308;2023-02-08T09:05:41;1.50;1.00
12557;DHT22;6344;49.932;8.308;2023-02-08T09:08:08;1.90;1.00
12557;DHT22;6344;49.932;8.308;2023-02-08T09:10:34;1.80;1.00
12557;DHT22;6344;49.932;8.308;2023-02-08T09:13:01;1.80;1.00
12557;DHT22;6344;49.932;8.308;2023-02-08T09:15:29;1.70;1.00
12557;DHT22;6344;49.932;8.308;2023-02-08T09:17:56;2.20;1.00
12557;DHT22;6344;49.932;8.308;2023-02-08T09:20:23;2.40;1.00
12557;DHT22;6344;49.932;8.308;2023-02-08T09:22:49;2.30;1.00
12557;DHT22;6344;49.932;8.308;2023-02-08T09:25:18;2.30;1.00
12557;DHT22;6344;49.932;8.308;2023-02-08T09:27:44;2.50;1.00
12557;DHT22;6344;49.932;8.308;2023-02-08T09:30:11;2.50;1.00
12557;DHT22;6344;49.932;8.308;2023-02-08T09:32:39;2.50;1.00
12557;DHT22;6344;49.932;8.308;2023-02-08T09:35:07;2.80;1.00
12557;DHT22;6344;49.932;8.308;2023-02-08T09:37:34;3.00;1.00
12557;DHT22;6344;49.932;8.308;2023-02-08T09:40:00;3.20;1.00
12557;DHT22;6344;49.932;8.308;2023-02-08T09:42:32;3.20;1.00
12557;DHT22;6344;49.932;8.308;2023-02-08T09:45:16;3.00;1.00
12557;DHT22;6344;49.932;8.308;2023-02-08T09:47:50;3.30;1.00
12557;DHT22;6344;49.932;8.308;2023-02-08T09:50:25;3.20;1.00
12557;DHT22;6344;49.932;8.308;2023-02-08T09:52:58;3.00;1.00
12557;DHT22;6344;49.932;8.308;2023-02-08T09:55:29;2.90;1.00
12557;DHT22;6344;49.932;8.308;2023-02-08T09:58:01;3.00;1.00
12557;DHT22;6344;49.932;8.308;2023-02-08T10:00:33;3.00;1.00
12557;DHT22;6344;49.932;8.308;2023-02-08T10:03:02;3.00;1.00
12557;DHT22;6344;49.932;8.308;2023-02-08T10:05:30;3.20;1.00
12557;DHT22;6344;49.932;8.308;2023-02-08T10:07:57;3.80;1.00
12557;DHT22;6344;49.932;8.308;2023-02-08T10:10:36;3.80;1.00
12557;DHT22;6344;49.932;8.308;2023-02-08T10:13:14;3.90;1.00
12557;DHT22;6344;49.932;8.308;2023-02-08T10:15:47;3.90;1.00
12557;DHT22;6344;49.932;8.308;2023-02-08T10:18:26;3.80;1.00
12557;DHT22;6344;49.932;8.308;2023-02-08T10:21:09;4.10;1.00
12557;DHT22;6344;49.932;8.308;2023-02-08T10:23:56;4.60;1.00
12557;DHT22;6344;49.932;8.308;2023-02-08T10:26:33;4.50;1.00
12557;DHT22;6344;49.932;8.308;2023-02-08T10:29:20;4.40;1.00
12557;DHT22;6344;49.932;8.308;2023-02-08T10:32:04;4.80;1.00
12557;DHT22;6344;49.932;8.308;2023-02-08T10:34:41;5.00;1.00
12557;DHT22;6344;49.932;8.308;2023-02-08T10:37:12;4.60;1.00
12557;DHT22;6344;49.932;8.308;2023-02-08T10:39:40;4.80;1.00
12557;DHT22;6344;49.932;8.308;2023-02-08T10:42:12;5.20;1.00
12557;DHT22;6344;49.932;8.308;2023-02-08T10:44:52;5.20;1.00
12557;DHT22;6344;49.932;8.308;2023-02-08T10:47:31;5.60;1.00
12557;DHT22;6344;49.932;8.308;2023-02-08T10:50:06;5.30;1.00
12557;DHT22;6344;49.932;8.308;2023-02-08T10:52:36;5.40;1.00
12557;DHT22;6344;49.932;8.308;2023-02-08T10:55:11;5.60;1.00
12557;DHT22;6344;49.932;8.308;2023-02-08T10:57:38;5.20;1.00
12557;DHT22;6344;49.932;8.308;2023-02-08T11:00:09;4.90;1.00
12557;DHT22;6344;49.932;8.308;2023-02-08T11:02:39;5.00;1.00
12557;DHT22;6344;49.932;8.308;2023-02-08T11:05:14;5.20;1.00
12557;DHT22;6344;49.932;8.308;2023-02-08T11:07:42;5.50;1.00
12557;DHT22;6344;49.932;8.308;2023-02-08T11:10:14;5.30;1.00
12557;DHT22;6344;49.932;8.308;2023-02-08T11:12:42;5.10;1.00
12557;DHT22;6344;49.932;8.308;2023-02-08T11:15:21;5.20;1.00
12557;DHT22;6344;49.932;8.308;2023-02-08T11:17:53;5.00;1.00
12557;DHT22;6344;49.932;8.308;2023-02-08T11:20:26;5.10;1.00
12557;DHT22;6344;49.932;8.308;2023-02-08T11:22:56;5.00;1.00
12557;DHT22;6344;49.932;8.308;2023-02-08T11:25:35;5.60;1.00
12557;DHT22;6344;49.932;8.308;2023-02-08T11:28:04;6.00;1.00
12557;DHT22;6344;49.932;8.308;2023-02-08T11:30:31;6.00;1.00
12557;DHT22;6344;49.932;8.308;2023-02-08T11:33:16;5.80;1.00
12557;DHT22;6344;49.932;8.308;2023-02-08T11:35:52;6.00;1.00
12557;DHT22;6344;49.932;8.308;2023-02-08T11:38:20;6.00;1.00
12557;DHT22;6344;49.932;8.308;2023-02-08T11:40:53;5.80;1.00
12557;DHT22;6344;49.932;8.308;2023-02-08T11:43:22;6.00;1.00
12557;DHT22;6344;49.932;8.308;2023-02-08T11:45:50;6.40;1.00
12557;DHT22;6344;49.932;8.308;2023-02-08T11:48:21;6.70;1.00
12557;DHT22;6344;49.932;8.308;2023-02-08T11:50:55;6.80;1.00
12557;DHT22;6344;49.932;8.308;2023-02-08T11:53:26;7.00;1.00
12557;DHT22;6344;49.932;8.308;2023-02-08T11:56:02;7.30;1.00
12557;DHT22;6344;49.932;8.308;2023-02-08T11:58:29;7.30;1.00
12557;DHT22;6344;49.932;8.308;2023-02-08T12:00:59;7.00;1.00
12557;DHT22;6344;49.932;8.308;2023-02-08T12:03:28;6.90;1.00
12557;DHT22;6344;49.932;8.308;2023-02-08T12:06:07;6.40;1.00
12557;DHT22;6344;49.932;8.308;2023-02-08T12:08:40;6.40;1.00
12557;DHT22;6344;49.932;8.308;2023-02-08T12:11:14;6.60;1.00
12557;DHT22;6344;49.932;8.308;2023-02-08T12:13:57;6.50;1.00
12557;DHT22;6344;49.932;8.308;2023-02-08T12:16:39;6.80;99.90
12557;DHT22;6344;49.932;8.308;2023-02-08T12:19:32;7.20;99.90
12557;DHT22;6344;49.932;8.308;2023-02-08T12:22:06;7.10;99.90
12557;DHT22;6344;49.932;8.308;2023-02-08T12:24:40;7.80;99.90
12557;DHT22;6344;49.932;8.308;2023-02-08T12:27:22;8.20;99.90
12557;DHT22;6344;49.932;8.308;2023-02-08T12:29:57;8.00;99.90
12557;DHT22;6344;49.932;8.308;2023-02-08T12:32:48;8.00;99.90
12557;DHT22;6344;49.932;8.308;2023-02-08T12:38:40;8.50;99.90
12557;DHT22;6344;49.932;8.308;2023-02-08T12:41:30;7.90;99.90
12557;DHT22;6344;49.932;8.308;2023-02-08T12:44:03;7.40;99.90
12557;DHT22;6344;49.932;8.308;2023-02-08T12:46:46;7.40;99.90
12557;DHT22;6344;49.932;8.308;2023-02-08T12:49:26;7.80;99.90
12557;DHT22;6344;49.932;8.308;2023-02-08T12:52:05;7.60;99.90
12557;DHT22;6344;49.932;8.308;2023-02-08T12:54:40;7.60;99.90
12557;DHT22;6344;49.932;8.308;2023-02-08T12:57:10;7.60;99.90
12557;DHT22;6344;49.932;8.308;2023-02-08T12:59:39;7.50;97.30
12557;DHT22;6344;49.932;8.308;2023-02-08T13:02:14;7.50;96.40
12557;DHT22;6344;49.932;8.308;2023-02-08T13:04:44;7.60;97.50
12557;DHT22;6344;49.932;8.308;2023-02-08T13:07:15;7.90;97.60
12557;DHT22;6344;49.932;8.308;2023-02-08T13:09:49;8.20;99.50
12557;DHT22;6344;49.932;8.308;2023-02-08T13:12:19;7.60;95.30
12557;DHT22;6344;49.932;8.308;2023-02-08T13:14:50;7.20;92.60
12557;DHT22;6344;49.932;8.308;2023-02-08T13:17:20;7.30;92.30
12557;DHT22;6344;49.932;8.308;2023-02-08T13:19:52;7.20;92.00
12557;DHT22;6344;49.932;8.308;2023-02-08T13:22:20;7.40;92.70
12557;DHT22;6344;49.932;8.308;2023-02-08T13:24:50;7.40;91.70
12557;DHT22;6344;49.932;8.308;2023-02-08T13:27:19;7.20;90.00
12557;DHT22;6344;49.932;8.308;2023-02-08T13:29:49;7.20;89.60
12557;DHT22;6344;49.932;8.308;2023-02-08T13:32:21;7.00;85.80
12557;DHT22;6344;49.932;8.308;2023-02-08T13:34:57;6.70;80.20
12557;DHT22;6344;49.932;8.308;2023-02-08T13:37:27;6.90;83.00
12557;DHT22;6344;49.932;8.308;2023-02-08T13:40:02;7.20;84.10
12557;DHT22;6344;49.932;8.308;2023-02-08T13:42:34;7.10;82.00
12557;DHT22;6344;49.932;8.308;2023-02-08T13:45:02;7.50;84.40
12557;DHT22;6344;49.932;8.308;2023-02-08T13:47:31;7.60;86.10
12557;DHT22;6344;49.932;8.308;2023-02-08T13:50:00;7.70;82.10
12557;DHT22;6344;49.932;8.308;2023-02-08T13:52:51;7.60;81.40
12557;DHT22;6344;49.932;8.308;2023-02-08T13:55:42;7.50;77.70
12557;DHT22;6344;49.932;8.308;2023-02-08T13:58:33;7.70;77.10
12557;DHT22;6344;49.932;8.308;2023-02-08T14:01:05;7.60;74.10
12557;DHT22;6344;49.932;8.308;2023-02-08T14:03:34;7.90;78.50
12557;DHT22;6344;49.932;8.308;2023-02-08T14:06:02;7.60;74.20
12557;DHT22;6344;49.932;8.308;2023-02-08T14:08:34;7.80;74.10
12557;DHT22;6344;49.932;8.308;2023-02-08T14:11:13;7.80;72.00
12557;DHT22;6344;49.932;8.308;2023-02-08T14:13:46;8.00;72.20
12557;DHT22;6344;49.932;8.308;2023-02-08T14:16:27;8.10;71.60
12557;DHT22;6344;49.932;8.308;2023-02-08T14:18:56;8.10;70.80
12557;DHT22;6344;49.932;8.308;2023-02-08T14:21:31;7.70;66.10
12557;DHT22;6344;49.932;8.308;2023-02-08T14:24:02;7.40;60.50
12557;DHT22;6344;49.932;8.308;2023-02-08T14:26:31;7.60;62.70
12557;DHT22;6344;49.932;8.308;2023-02-08T14:28:59;7.50;60.80
12557;DHT22;6344;49.932;8.308;2023-02-08T14:31:38;7.70;61.80
12557;DHT22;6344;49.932;8.308;2023-02-08T14:34:21;7.60;61.50
12557;DHT22;6344;49.932;8.308;2023-02-08T14:36:58;7.70;75.10
12557;DHT22;6344;49.932;8.308;2023-02-08T14:39:26;7.50;56.70
12557;DHT22;6344;49.932;8.308;2023-02-08T14:41:56;7.40;54.60
12557;DHT22;6344;49.932;8.308;2023-02-08T14:44:58;7.20;52.60
12557;DHT22;6344;49.932;8.308;2023-02-08T14:50:32;7.60;54.20
12557;DHT22;6344;49.932;8.308;2023-02-08T14:53:03;7.50;53.60
12557;DHT22;6344;49.932;8.308;2023-02-08T14:55:38;7.60;53.60
12557;DHT22;6344;49.932;8.308;2023-02-08T14:58:11;7.60;53.00
12557;DHT22;6344;49.932;8.308;2023-02-08T15:00:40;7.40;50.60
12557;DHT22;6344;49.932;8.308;2023-02-08T15:03:13;7.30;47.60
12557;DHT22;6344;49.932;8.308;2023-02-08T15:05:48;7.40;49.50
12557;DHT22;6344;49.932;8.308;2023-02-08T15:08:24;7.40;48.10
12557;DHT22;6344;49.932;8.308;2023-02-08T15:10:52;7.40;48.20
12557;DHT22;6344;49.932;8.308;2023-02-08T15:13:23;7.30;45.80
12557;DHT22;6344;49.932;8.308;2023-02-08T15:15:52;7.40;47.60
12557;DHT22;6344;49.932;8.308;2023-02-08T15:18:22;7.30;45.80
12557;DHT22;6344;49.932;8.308;2023-02-08T15:20:59;7.30;45.10
12557;DHT22;6344;49.932;8.308;2023-02-08T15:23:26;7.20;44.10
12557;DHT22;6344;49.932;8.308;2023-02-08T15:25:54;6.90;40.20
12557;DHT22;6344;49.932;8.308;2023-02-08T15:28:24;6.90;39.90
12557;DHT22;6344;49.932;8.308;2023-02-08T15:30:55;6.50;37.00
12557;DHT22;6344;49.932;8.308;2023-02-08T15:33:23;6.40;37.20
12557;DHT22;6344;49.932;8.308;2023-02-08T15:35:57;6.50;38.10
12557;DHT22;6344;49.932;8.308;2023-02-08T15:38:25;6.30;38.30
12557;DHT22;6344;49.932;8.308;2023-02-08T15:41:00;6.20;36.40
12557;DHT22;6344;49.932;8.308;2023-02-08T15:43:28;6.00;36.20
12557;DHT22;6344;49.932;8.308;2023-02-08T15:45:56;5.80;35.70
12557;DHT22;6344;49.932;8.308;2023-02-08T15:48:23;5.70;35.40
12557;DHT22;6344;49.932;8.308;2023-02-08T15:50:50;5.50;34.00
12557;DHT22;6344;49.932;8.308;2023-02-08T15:53:17;5.40;33.90
12557;DHT22;6344;49.932;8.308;2023-02-08T15:55:46;5.00;30.00
12557;DHT22;6344;49.932;8.308;2023-02-08T15:58:17;4.70;29.40
12557;DHT22;6344;49.932;8.308;2023-02-08T16:00:46;4.30;27.10
12557;DHT22;6344;49.932;8.308;2023-02-08T16:03:18;4.10;26.50
12557;DHT22;6344;49.932;8.308;2023-02-08T16:05:49;3.90;25.20
12557;DHT22;6344;49.932;8.308;2023-02-08T16:08:21;3.70;25.00
12557;DHT22;6344;49.932;8.308;2023-02-08T16:10:52;3.60;25.80
12557;DHT22;6344;49.932;8.308;2023-02-08T16:13:22;3.40;25.10
12557;DHT22;6344;49.932;8.308;2023-02-08T16:15:53;3.30;24.80
12557;DHT22;6344;49.932;8.308;2023-02-08T16:18:37;3.10;24.70
12557;DHT22;6344;49.932;8.308;2023-02-08T16:21:15;3.00;24.80
12557;DHT22;6344;49.932;8.308;2023-02-08T16:23:49;2.80;24.50
12557;DHT22;6344;49.932;8.308;2023-02-08T16:26:20;2.50;25.30
12557;DHT22;6344;49.932;8.308;2023-02-08T16:28:53;2.30;25.90
12557;DHT22;6344;49.932;8.308;2023-02-08T16:31:24;2.10;25.90
12557;DHT22;6344;49.932;8.308;2023-02-08T16:33:58;2.00;25.90